La Guardia Airport
KLGA : now visible

Airfield :











YOU CAN JOIN US ON...

 
LOGIN :

Register | Disclaimer

   EN    FR    IT 

 









Legend :    VFR   Marginal VFR   IFR   Intensive IFR   Very Intensive IFR
Visi :
Ceiling :
>= 8 km
>= 3000ft
5 to 8 km
1000 to 3000 ft
1500m to 5 km
500 to 1000 ft
800 to 1500m
200 to 500 ft
< 800m
< 200 ft
Symbols :   Thunderstorms  Fog  Heavy snow  Heavy precipitations  Wind > 20 kt






- Airport Elevation : 21 ft
- IATA code : LGA


KLGA - La Guardia

CURRENT METAR :
  • 291251Z 35010KT 10SM OVC039 00/M08 A3005 RMK AO2 SLP176 T00001083

EXPIRED METARs :
  • 291151Z 32015KT 10SM OVC040 01/M08 A3002 RMK AO2 SLP166 T00061083 10022 20006 53018
  • 291051Z 34011KT 10SM OVC042 01/M08 A2999 RMK AO2 SLP156 T00061083

TAF KLGA
Valid from the 29 at 13:00 until the 30 at 18:00 UTC


291245Z 2913/3018 33010KT P6SM BKN040
FM291500 32012KT P6SM SCT040
FM291800 33012KT P6SM SCT250
FM300000 35009KT P6SM SKC
FM300600 02008KT P6SM SKC



MET'MAP, your aeronautical weather chart ! - Copyright ORBIFLY December 2007 - Disclaimer

ORBIFLY MET'MAP TEAM :

Programming & Development : Alexandra Zaïnal
Concept & original design : Baudouin d'Aumeries
Assistance for programming : Marc-Olivier Méhu
Technical & hardware support : Manuel Goepfert

Contact : metmap@orbifly.com




SOURCES & CREDITS :

   NOAA       Earth
Advisory